Main page
METAR-TAF:

METAR-TAF

Airports :

Leonardo da Vinci–Fiumicino Airport

Rome-Fiumicino, Italy

latitude: 41-48N, longitude: 012-14E, elevation: 2 m

Current weather observation

The report was made 47 minutes ago, at 09:50 UTC
Wind 8 kt from the South
Temperature 23°C
Humidity 61%
Pressure 1019 hPa
Visibility 10 km or more
no clouds below 1500 m and no cumulonimbus

METAR: LIRF 090950Z 19008KT CAVOK 23/15 Q1019 NOSIG

Time: 12:37 (10:37 UTC)

Forecast

The report was made 5 hours and 37 minutes ago, at 05:00 UTC
Forecast valid from 09 at 06 UTC to 10 at 12 UTC
Wind 5 kt from variable directions
Visibility 10 km or more
Few clouds at a height of 6000 ft
Becoming
from 09 at 09 UTC to 09 at 11 UTC
Wind 12 kt from the South/Southwest
Becoming
from 09 at 18 UTC to 09 at 20 UTC
Wind 8 kt from the East/Southeast
Becoming
from 10 at 10 UTC to 10 at 12 UTC
Wind 10 kt from the South/Southwest

TAF: LIRF 090500Z 0906/1012 VRB05KT 9999 FEW060 BECMG 0909/0911 20012KT BECMG 0918/0920 12008KT BECMG 1010/1012 20010KT

Weather observations and forecasts of more than 4000 airports (METAR and TAF reports).

The available stations are represented by yellow and red dots on the map.

Hover mouse over dot to see the name of the station.

Then click to see weather observations and forecasts.

To change the map : click on the green buttons with a black cross to zoom in, on the green button with a dash to zoom out, or on the green arrows for adjacent maps.


METAR-TAF: